createdAt,value
2023-04-03T00:02:43.525Z,100279.22
2023-04-03T00:05:45.527Z,100279.53
2023-04-03T00:08:47.281Z,100279.12
2023-04-03T00:11:48.895Z,100281.06
2023-04-03T00:14:50.662Z,100284.66
2023-04-03T00:17:52.399Z,100281.50
2023-04-03T00:20:54.075Z,100295.59
2023-04-03T00:23:55.719Z,100294.84
2023-04-03T00:26:57.377Z,100294.16
2023-04-03T00:29:59.004Z,100288.84
2023-04-03T00:33:01.703Z,100297.91
2023-04-03T00:36:08.789Z,100286.69
2023-04-03T00:39:10.456Z,100295.88
2023-04-03T00:42:12.188Z,100294.16
2023-04-03T00:45:16.503Z,100301.78
2023-04-03T00:48:32.961Z,100298.75
2023-04-03T00:51:35.120Z,100298.97
2023-04-03T00:54:38.428Z,100294.03
2023-04-03T00:57:40.082Z,100294.16
2023-04-03T01:00:47.539Z,100298.72
2023-04-03T01:03:49.392Z,100301.63
2023-04-03T01:06:51.594Z,100296.81
2023-04-03T01:09:58.420Z,100297.38
2023-04-03T01:13:01.637Z,100298.41
2023-04-03T01:16:05.688Z,100304.59
2023-04-03T01:19:11.651Z,100306.88
2023-04-03T01:22:44.552Z,100309.34
2023-04-03T01:25:49.496Z,100310.06
2023-04-03T01:28:51.317Z,100323.38
2023-04-03T01:32:01.307Z,100320.94
2023-04-03T01:35:03.060Z,100319.47
2023-04-03T01:38:04.724Z,100317.63
2023-04-03T01:41:06.364Z,100323.47
2023-04-03T01:44:08.252Z,100323.22
2023-04-03T01:47:10.062Z,100323.28
2023-04-03T01:50:11.770Z,100324.69
2023-04-03T01:53:14.097Z,100316.25
2023-04-03T01:56:16.412Z,100315.25
2023-04-03T01:59:19.125Z,100320.22
2023-04-03T02:02:21.385Z,100320.38
2023-04-03T02:05:23.076Z,100326.88
2023-04-03T02:08:24.862Z,100333.19
2023-04-03T02:11:26.570Z,100328.69
2023-04-03T02:14:28.712Z,100328.97
2023-04-03T02:17:30.841Z,100324.78
2023-04-03T02:20:32.540Z,100337.66
2023-04-03T02:23:37.150Z,100329.94
2023-04-03T02:26:38.868Z,100323.84
2023-04-03T02:29:40.515Z,100322.41
2023-04-03T02:32:43.448Z,100333.78
2023-04-03T02:35:47.329Z,100332.50
2023-04-03T02:38:49.417Z,100328.31
2023-04-03T02:41:51.068Z,100329.47
2023-04-03T02:44:52.748Z,100323.22
2023-04-03T02:47:54.464Z,100327.31
2023-04-03T02:50:56.330Z,100327.59
2023-04-03T02:53:58.006Z,100334.63
2023-04-03T02:56:59.772Z,100341.25
2023-04-03T03:00:01.516Z,100339.97
2023-04-03T03:03:03.265Z,100338.34
2023-04-03T03:06:09.175Z,100339.13
2023-04-03T03:09:11.049Z,100342.25
2023-04-03T03:12:12.714Z,100337.28
2023-04-03T03:15:14.477Z,100341.47
2023-04-03T03:18:16.385Z,100335.75
2023-04-03T03:21:18.029Z,100339.88
2023-04-03T03:24:19.752Z,100352.06
2023-04-03T03:27:21.743Z,100345.47
2023-04-03T03:30:23.431Z,100351.25
2023-04-03T03:33:26.211Z,100348.66
2023-04-03T03:36:27.897Z,100352.56
2023-04-03T03:39:29.670Z,100347.72
2023-04-03T03:42:31.305Z,100344.88
2023-04-03T03:45:32.969Z,100350.22
2023-04-03T03:48:34.846Z,100348.97
2023-04-03T03:51:36.644Z,100348.44
2023-04-03T03:54:39.270Z,100344.97
2023-04-03T03:57:40.967Z,100342.22
2023-04-03T04:00:42.623Z,100349.09
2023-04-03T04:03:44.399Z,100341.59
2023-04-03T04:06:46.118Z,100353.00
2023-04-03T04:09:47.740Z,100346.00
2023-04-03T04:12:50.283Z,100343.75
2023-04-03T04:15:52.209Z,100347.78
2023-04-03T04:18:53.876Z,100349.31
2023-04-03T04:21:55.630Z,100354.75
2023-04-03T04:24:57.386Z,100350.16
2023-04-03T04:27:59.035Z,100359.81
2023-04-03T04:31:00.719Z,100358.97
2023-04-03T04:34:02.453Z,100367.78
2023-04-03T04:37:04.301Z,100365.50
2023-04-03T04:40:06.808Z,100354.69
2023-04-03T04:43:08.441Z,100360.41
2023-04-03T04:46:13.227Z,100358.41
2023-04-03T04:49:14.997Z,100362.59
2023-04-03T04:52:16.812Z,100373.44
2023-04-03T04:55:18.625Z,100366.94
2023-04-03T04:58:20.877Z,100367.78
2023-04-03T05:01:22.548Z,100370.69
2023-04-03T05:04:24.305Z,100371.94
2023-04-03T05:07:26.184Z,100377.06
2023-04-03T05:10:27.794Z,100380.09
2023-04-03T05:13:29.669Z,100378.06
2023-04-03T05:16:31.799Z,100385.25
2023-04-03T05:19:33.572Z,100385.97
2023-04-03T05:22:35.337Z,100389.13
2023-04-03T05:25:39.407Z,100389.22
2023-04-03T05:28:41.560Z,100391.31
2023-04-03T05:31:43.266Z,100396.53
2023-04-03T05:34:44.941Z,100391.06
2023-04-03T05:37:46.595Z,100396.87
2023-04-03T05:40:48.497Z,100399.16
2023-04-03T05:43:50.533Z,100415.56
2023-04-03T05:46:52.187Z,100408.53
2023-04-03T05:49:53.848Z,100409.97
2023-04-03T05:52:59.207Z,100410.75
2023-04-03T05:56:01.695Z,100414.94
2023-04-03T05:59:03.392Z,100414.00
2023-04-03T06:02:05.273Z,100415.12
2023-04-03T06:05:08.153Z,100409.22
2023-04-03T06:08:10.195Z,100421.88
2023-04-03T06:11:11.880Z,100410.53
2023-04-03T06:14:14.132Z,100414.34
2023-04-03T06:17:17.753Z,100417.84
2023-04-03T06:20:19.538Z,100426.50
2023-04-03T06:23:21.303Z,100416.37
2023-04-03T06:26:23.372Z,100423.13
2023-04-03T06:29:25.779Z,100423.81
2023-04-03T06:32:27.599Z,100432.88
2023-04-03T06:35:31.322Z,100434.50
2023-04-03T06:38:34.458Z,100438.19
2023-04-03T06:41:37.228Z,100437.69
2023-04-03T06:44:39.111Z,100444.16
2023-04-03T06:47:40.936Z,100451.84
2023-04-03T06:50:42.929Z,100446.56
2023-04-03T06:53:44.591Z,100447.31
2023-04-03T06:56:46.300Z,100445.66
2023-04-03T06:59:48.055Z,100447.94
2023-04-03T07:02:49.837Z,100445.22
2023-04-03T07:05:51.557Z,100444.31
2023-04-03T07:08:53.718Z,100449.03
2023-04-03T07:11:55.455Z,100444.72
2023-04-03T07:14:57.076Z,100452.50
2023-04-03T07:17:58.991Z,100453.00
2023-04-03T07:21:01.367Z,100449.19
2023-04-03T07:24:03.405Z,100451.34
2023-04-03T07:27:05.462Z,100447.88
2023-04-03T07:30:07.747Z,100440.87
2023-04-03T07:33:09.420Z,100450.69
2023-04-03T07:36:15.188Z,100453.78
2023-04-03T07:39:17.106Z,100457.25
2023-04-03T07:42:18.840Z,100454.84
2023-04-03T07:45:20.504Z,100466.94
2023-04-03T07:48:26.731Z,100475.19
2023-04-03T07:51:29.309Z,100473.50
2023-04-03T07:54:31.245Z,100476.22
2023-04-03T07:57:32.990Z,100475.75
2023-04-03T08:00:35.066Z,100470.13
2023-04-03T08:03:38.474Z,100470.97
2023-04-03T08:06:46.394Z,100473.41
2023-04-03T08:09:49.112Z,100472.44
2023-04-03T08:12:50.872Z,100469.19
2023-04-03T08:15:53.291Z,100470.03
2023-04-03T08:18:55.876Z,100472.38
2023-04-03T08:21:59.475Z,100471.59
2023-04-03T08:25:02.551Z,100478.22
2023-04-03T08:28:04.678Z,100478.47
2023-04-03T08:31:08.867Z,100483.44
2023-04-03T08:34:10.574Z,100477.97
2023-04-03T08:37:12.422Z,100480.87
2023-04-03T08:40:17.830Z,100487.47
2023-04-03T08:43:32.506Z,100489.72
2023-04-03T08:47:12.625Z,100485.44
2023-04-03T08:50:22.019Z,100489.59
2023-04-03T08:53:29.547Z,100493.06
2023-04-03T08:56:31.990Z,100487.19
2023-04-03T08:59:40.052Z,100481.66
2023-04-03T09:02:49.044Z,100486.56
2023-04-03T09:05:56.795Z,100488.81
2023-04-03T09:09:16.778Z,100476.22
2023-04-03T09:12:51.556Z,100491.16
2023-04-03T09:15:55.027Z,100474.59
2023-04-03T09:19:24.437Z,100481.66
2023-04-03T09:22:27.801Z,100488.66
2023-04-03T09:25:34.437Z,100481.31
2023-04-03T09:28:49.368Z,100491.88
2023-04-03T09:32:01.934Z,100493.50
2023-04-03T09:35:19.043Z,100496.81
2023-04-03T09:38:23.364Z,100500.47
2023-04-03T09:41:25.099Z,100511.06
2023-04-03T09:44:33.394Z,100503.59
2023-04-03T09:47:37.382Z,100500.91
2023-04-03T09:50:52.356Z,100503.03
2023-04-03T09:53:54.704Z,100501.87
2023-04-03T09:56:58.711Z,100499.69
2023-04-03T10:00:05.853Z,100501.44
2023-04-03T10:03:25.569Z,100504.66
2023-04-03T10:06:30.983Z,100511.75
2023-04-03T10:09:34.186Z,100506.34
2023-04-03T10:12:35.862Z,100512.53
2023-04-03T10:15:45.997Z,100517.09
2023-04-03T10:18:56.632Z,100509.31
2023-04-03T10:22:05.586Z,100511.37
2023-04-03T10:25:12.935Z,100512.72
2023-04-03T10:28:31.968Z,100508.66
2023-04-03T10:32:10.821Z,100511.53
2023-04-03T10:35:21.701Z,100506.97
2023-04-03T10:38:44.269Z,100517.09
2023-04-03T10:42:16.530Z,100507.38
2023-04-03T10:45:29.166Z,100504.09
2023-04-03T10:48:38.291Z,100497.59
2023-04-03T10:51:47.301Z,100496.91
2023-04-03T10:54:54.836Z,100497.91
2023-04-03T10:57:59.856Z,100497.25
2023-04-03T11:01:11.243Z,100492.13
2023-04-03T11:04:14.982Z,100491.78
2023-04-03T11:07:42.546Z,100491.81
2023-04-03T11:10:49.313Z,100481.16
2023-04-03T11:13:58.770Z,100481.34
2023-04-03T11:17:06.689Z,100479.97
2023-04-03T11:20:21.081Z,100478.03
2023-04-03T11:23:35.562Z,100481.13
2023-04-03T11:26:43.406Z,100476.59
2023-04-03T11:29:47.374Z,100479.34
2023-04-03T11:33:01.804Z,100475.59
2023-04-03T11:36:24.812Z,100475.97
2023-04-03T11:39:31.806Z,100456.94
2023-04-03T11:42:43.680Z,100454.19
2023-04-03T11:46:02.360Z,100457.41
2023-04-03T11:49:04.097Z,100452.28
2023-04-03T11:52:12.591Z,100447.09
2023-04-03T11:55:23.221Z,100447.22
2023-04-03T11:58:26.363Z,100438.59
2023-04-03T12:01:47.365Z,100441.09
2023-04-03T12:05:30.937Z,100434.16
2023-04-03T12:08:44.626Z,100425.62
2023-04-03T12:11:46.625Z,100425.50
2023-04-03T12:14:48.620Z,100412.03
2023-04-03T12:17:51.007Z,100415.50
2023-04-03T12:20:53.108Z,100417.59
2023-04-03T12:24:03.905Z,100417.03
2023-04-03T12:27:21.577Z,100408.53
2023-04-03T12:30:28.743Z,100389.31
2023-04-03T12:33:43.012Z,100419.63
2023-04-03T12:36:56.630Z,100413.50
2023-04-03T12:40:42.941Z,100430.88
2023-04-03T12:44:12.631Z,100426.50
2023-04-03T12:47:24.874Z,100427.69
2023-04-03T12:50:33.824Z,100427.06
2023-04-03T12:53:39.410Z,100425.25
2023-04-03T12:56:41.562Z,100435.28
2023-04-03T12:59:46.475Z,100433.22
2023-04-03T13:02:48.762Z,100428.38
2023-04-03T13:05:51.194Z,100427.16
2023-04-03T13:08:55.459Z,100418.69
2023-04-03T13:12:23.288Z,100420.25
2023-04-03T13:15:41.445Z,100423.22
2023-04-03T13:18:43.196Z,100422.81
2023-04-03T13:21:46.480Z,100407.44
2023-04-03T13:24:51.676Z,100412.88
2023-04-03T13:28:00.421Z,100410.28
2023-04-03T13:31:15.284Z,100420.41
2023-04-03T13:34:22.522Z,100415.56
2023-04-03T13:37:33.331Z,100422.88
2023-04-03T13:44:03.384Z,100413.50
2023-04-03T13:47:11.981Z,100411.47
2023-04-03T13:50:13.676Z,100409.87
2023-04-03T13:53:15.587Z,100413.75
2023-04-03T13:56:40.387Z,100405.25
2023-04-03T13:59:42.851Z,100407.94
2023-04-03T14:02:48.246Z,100400.88
2023-04-03T14:05:50.173Z,100401.56
2023-04-03T14:08:52.825Z,100395.22
2023-04-03T14:11:58.571Z,100394.66
2023-04-03T14:15:05.802Z,100403.47
2023-04-03T14:18:08.121Z,100412.12
2023-04-03T14:21:12.670Z,100408.88
2023-04-03T14:24:14.386Z,100409.03
2023-04-03T14:27:24.049Z,100419.28
2023-04-03T14:30:29.714Z,100419.06
2023-04-03T14:33:35.444Z,100414.16
2023-04-03T14:36:37.523Z,100424.50
2023-04-03T14:39:39.638Z,100420.31
2023-04-03T14:42:41.747Z,100422.53
2023-04-03T14:45:43.736Z,100427.09
2023-04-03T14:48:46.434Z,100417.91
2023-04-03T14:51:48.289Z,100420.34
2023-04-03T14:54:50.886Z,100421.50
2023-04-03T14:57:53.968Z,100414.28
2023-04-03T15:00:55.617Z,100405.78
2023-04-03T15:03:57.402Z,100417.50
2023-04-03T15:06:59.371Z,100406.22
2023-04-03T15:10:07.856Z,100407.06
2023-04-03T15:13:12.974Z,100411.38
2023-04-03T15:16:20.657Z,100411.88
2023-04-03T15:19:22.349Z,100419.53
2023-04-03T15:22:24.357Z,100425.56
2023-04-03T15:25:27.158Z,100431.47
2023-04-03T15:28:38.360Z,100441.38
2023-04-03T15:31:40.027Z,100437.91
2023-04-03T15:34:41.822Z,100439.03
2023-04-03T15:37:44.255Z,100435.41
2023-04-03T15:40:47.996Z,100442.97
2023-04-03T15:43:49.697Z,100440.81
2023-04-03T15:46:52.409Z,100446.19
2023-04-03T15:49:55.997Z,100442.53
2023-04-03T15:52:59.034Z,100444.56
2023-04-03T15:56:00.896Z,100442.06
2023-04-03T15:59:02.711Z,100444.34
2023-04-03T16:02:07.400Z,100446.97
2023-04-03T16:05:10.296Z,100462.88
2023-04-03T16:08:12.711Z,100471.00
2023-04-03T16:11:14.416Z,100475.38
2023-04-03T16:14:16.070Z,100463.91
2023-04-03T16:17:17.751Z,100471.81
2023-04-03T16:20:19.893Z,100476.81
2023-04-03T16:23:22.119Z,100481.72
2023-04-03T16:26:23.778Z,100485.06
2023-04-03T16:29:25.419Z,100476.09
2023-04-03T16:32:30.422Z,100464.37
2023-04-03T16:35:32.101Z,100492.50
2023-04-03T16:38:34.044Z,100494.44
2023-04-03T16:41:35.893Z,100496.22
2023-04-03T16:44:38.734Z,100497.22
2023-04-03T16:47:40.653Z,100506.09
2023-04-03T16:50:42.543Z,100506.50
2023-04-03T16:53:44.892Z,100507.84
2023-04-03T16:56:47.541Z,100506.78
2023-04-03T16:59:50.566Z,100518.31
2023-04-03T17:02:52.424Z,100525.06
2023-04-03T17:05:54.608Z,100519.28
2023-04-03T17:08:56.241Z,100523.84
2023-04-03T17:11:58.045Z,100539.25
2023-04-03T17:14:59.703Z,100543.25
2023-04-03T17:18:01.554Z,100558.91
2023-04-03T17:21:04.403Z,100563.09
2023-04-03T17:24:09.503Z,100576.03
2023-04-03T17:27:11.638Z,100578.38
2023-04-03T17:30:14.053Z,100595.63
2023-04-03T17:33:16.202Z,100611.97
2023-04-03T17:36:18.635Z,100611.88
2023-04-03T17:39:20.929Z,100642.16
2023-04-03T17:42:22.829Z,100629.87
2023-04-03T17:45:25.243Z,100647.53
2023-04-03T17:48:28.298Z,100646.63
2023-04-03T17:51:32.577Z,100647.75
2023-04-03T17:54:34.876Z,100661.19
2023-04-03T17:57:36.739Z,100667.16
2023-04-03T18:00:39.147Z,100687.38
2023-04-03T18:03:42.557Z,100690.72
2023-04-03T18:06:51.556Z,100683.31
2023-04-03T18:09:55.331Z,100686.47
2023-04-03T18:12:58.251Z,100703.53
2023-04-03T18:16:00.414Z,100698.25
2023-04-03T18:19:21.096Z,100708.53
2023-04-03T18:22:24.903Z,100710.25
2023-04-03T18:25:27.352Z,100718.44
2023-04-03T18:28:32.721Z,100719.22
2023-04-03T18:31:37.706Z,100712.53
2023-04-03T18:34:40.099Z,100711.66
2023-04-03T18:37:43.083Z,100711.78
2023-04-03T18:40:48.389Z,100709.06
2023-04-03T18:43:53.359Z,100707.91
2023-04-03T18:47:00.359Z,100715.03
2023-04-03T18:50:05.960Z,100713.31
2023-04-03T18:53:08.663Z,100720.66
2023-04-03T18:56:11.122Z,100718.34
2023-04-03T18:59:14.332Z,100716.06
2023-04-03T19:02:19.009Z,100697.53
2023-04-03T19:05:26.019Z,100712.81
2023-04-03T19:08:28.877Z,100713.69
2023-04-03T19:11:31.898Z,100714.72
2023-04-03T19:14:34.348Z,100718.78
2023-04-03T19:17:36.866Z,100707.28
2023-04-03T19:20:39.425Z,100713.31
2023-04-03T19:23:44.750Z,100714.06
2023-04-03T19:26:52.614Z,100698.66
2023-04-03T19:29:56.192Z,100690.72
2023-04-03T19:32:58.485Z,100692.41
2023-04-03T19:36:01.245Z,100674.28
2023-04-03T19:39:05.683Z,100667.53
2023-04-03T19:42:09.621Z,100657.81
2023-04-03T19:45:15.435Z,100659.31
2023-04-03T19:48:18.356Z,100668.91
2023-04-03T19:51:22.741Z,100661.72
2023-04-03T19:54:24.991Z,100666.72
2023-04-03T19:57:27.824Z,100675.62
2023-04-03T20:00:31.403Z,100670.41
2023-04-03T20:03:34.293Z,100668.03
2023-04-03T20:06:37.550Z,100662.81
2023-04-03T20:09:41.108Z,100673.69
2023-04-03T20:12:43.203Z,100676.53
2023-04-03T20:15:45.097Z,100678.34
2023-04-03T20:18:47.553Z,100674.28
2023-04-03T20:21:52.787Z,100671.56
2023-04-03T20:24:56.728Z,100667.63
2023-04-03T20:27:59.041Z,100671.66
2023-04-03T20:31:02.495Z,100676.84
2023-04-03T20:34:04.196Z,100676.69
2023-04-03T20:37:06.152Z,100695.47
2023-04-03T20:40:09.315Z,100690.09
2023-04-03T20:43:11.431Z,100683.25
2023-04-03T20:46:14.522Z,100685.34
2023-04-03T20:49:16.392Z,100675.53
2023-04-03T20:52:18.091Z,100681.91
2023-04-03T20:55:19.813Z,100678.09
2023-04-03T20:58:21.482Z,100683.66
2023-04-03T21:01:23.944Z,100683.38
2023-04-03T21:04:34.275Z,100675.72
2023-04-03T21:08:15.702Z,100675.94
2023-04-03T21:11:55.235Z,100670.78
2023-04-03T21:15:34.830Z,100664.69
2023-04-03T21:18:48.052Z,100671.41
2023-04-03T21:21:49.905Z,100671.37
2023-04-03T21:24:51.619Z,100662.38
2023-04-03T21:27:53.294Z,100659.44
2023-04-03T21:30:54.977Z,100652.00
2023-04-03T21:33:56.641Z,100650.53
2023-04-03T21:37:03.596Z,100643.13
2023-04-03T21:40:06.054Z,100649.09
2023-04-03T21:43:07.694Z,100648.97
2023-04-03T21:46:09.349Z,100650.50
2023-04-03T21:49:11.588Z,100654.47
2023-04-03T21:52:13.362Z,100647.19
2023-04-03T21:55:15.521Z,100643.47
2023-04-03T21:58:17.251Z,100642.94
2023-04-03T22:01:20.558Z,100632.78
2023-04-03T22:04:22.554Z,100635.69
2023-04-03T22:07:24.212Z,100630.75
2023-04-03T22:10:26.369Z,100638.72
2023-04-03T22:13:28.094Z,100626.19
2023-04-03T22:16:29.791Z,100632.78
2023-04-03T22:19:31.586Z,100638.72
2023-04-03T22:22:33.217Z,100636.69
2023-04-03T22:25:34.824Z,100631.22
2023-04-03T22:28:41.506Z,100632.22
2023-04-03T22:31:43.271Z,100623.28
2023-04-03T22:34:45.302Z,100618.50
2023-04-03T22:37:47.116Z,100620.16
2023-04-03T22:40:57.581Z,100612.66
2023-04-03T22:43:59.238Z,100621.06
2023-04-03T22:47:01.465Z,100628.44
2023-04-03T22:50:03.673Z,100624.28
2023-04-03T22:53:05.334Z,100616.56
2023-04-03T22:56:11.170Z,100613.56
2023-04-03T22:59:13.191Z,100619.16
2023-04-03T23:02:15.074Z,100616.47
2023-04-03T23:05:16.972Z,100620.81
2023-04-03T23:08:19.528Z,100615.78
2023-04-03T23:11:21.661Z,100616.03
2023-04-03T23:14:23.341Z,100607.44
2023-04-03T23:17:24.991Z,100615.03
2023-04-03T23:20:26.611Z,100628.53
2023-04-03T23:23:28.273Z,100624.41
2023-04-03T23:26:29.965Z,100629.56
2023-04-03T23:29:31.604Z,100629.84
2023-04-03T23:32:33.334Z,100631.66
2023-04-03T23:35:35.350Z,100620.84
2023-04-03T23:38:37.512Z,100630.00
2023-04-03T23:41:39.200Z,100627.16
2023-04-03T23:44:40.874Z,100631.97
2023-04-03T23:47:42.570Z,100630.22
2023-04-03T23:50:44.298Z,100637.31
2023-04-03T23:53:46.319Z,100642.94
2023-04-03T23:56:48.109Z,100639.78
2023-04-03T23:59:49.760Z,100645.50
